sensor_id;sensor_type;location;lat;lon;timestamp;P1;durP1;ratioP1;P2;durP2;ratioP2
77146;SDS011;66121;52.584;9.694;2024-02-26T00:02:04;7.45;;;4.38;;
77146;SDS011;66121;52.584;9.694;2024-02-26T00:04:29;6.73;;;4.90;;
77146;SDS011;66121;52.584;9.694;2024-02-26T00:06:54;7.27;;;4.80;;
77146;SDS011;66121;52.584;9.694;2024-02-26T00:09:20;10.00;;;4.45;;
77146;SDS011;66121;52.584;9.694;2024-02-26T00:11:46;7.78;;;4.38;;
77146;SDS011;66121;52.584;9.694;2024-02-26T00:14:11;6.32;;;4.70;;
77146;SDS011;66121;52.584;9.694;2024-02-26T00:16:39;6.63;;;4.30;;
77146;SDS011;66121;52.584;9.694;2024-02-26T00:19:05;6.80;;;3.92;;
77146;SDS011;66121;52.584;9.694;2024-02-26T00:21:30;8.80;;;4.93;;
77146;SDS011;66121;52.584;9.694;2024-02-26T00:23:55;11.27;;;4.73;;
77146;SDS011;66121;52.584;9.694;2024-02-26T00:26:21;5.55;;;4.07;;
77146;SDS011;66121;52.584;9.694;2024-02-26T00:28:46;7.93;;;4.35;;
77146;SDS011;66121;52.584;9.694;2024-02-26T00:31:11;8.07;;;4.80;;
77146;SDS011;66121;52.584;9.694;2024-02-26T00:33:37;6.28;;;4.28;;
77146;SDS011;66121;52.584;9.694;2024-02-26T00:36:03;9.25;;;4.45;;
77146;SDS011;66121;52.584;9.694;2024-02-26T00:38:31;8.07;;;4.65;;
77146;SDS011;66121;52.584;9.694;2024-02-26T00:40:57;8.20;;;4.85;;
77146;SDS011;66121;52.584;9.694;2024-02-26T00:43:22;6.90;;;4.40;;
77146;SDS011;66121;52.584;9.694;2024-02-26T00:45:48;8.07;;;5.03;;
77146;SDS011;66121;52.584;9.694;2024-02-26T00:48:13;6.70;;;4.15;;
77146;SDS011;66121;52.584;9.694;2024-02-26T00:50:39;8.60;;;4.93;;
77146;SDS011;66121;52.584;9.694;2024-02-26T00:53:05;8.90;;;4.88;;
77146;SDS011;66121;52.584;9.694;2024-02-26T00:55:30;7.32;;;4.55;;
77146;SDS011;66121;52.584;9.694;2024-02-26T00:57:56;6.40;;;4.30;;
77146;SDS011;66121;52.584;9.694;2024-02-26T01:00:21;7.87;;;4.70;;
77146;SDS011;66121;52.584;9.694;2024-02-26T01:02:47;6.82;;;4.43;;
77146;SDS011;66121;52.584;9.694;2024-02-26T01:05:12;9.15;;;4.43;;
77146;SDS011;66121;52.584;9.694;2024-02-26T01:07:39;7.68;;;4.30;;
77146;SDS011;66121;52.584;9.694;2024-02-26T01:10:05;6.88;;;4.40;;
77146;SDS011;66121;52.584;9.694;2024-02-26T01:12:34;8.48;;;4.13;;
77146;SDS011;66121;52.584;9.694;2024-02-26T01:15:01;7.63;;;4.82;;
77146;SDS011;66121;52.584;9.694;2024-02-26T01:17:28;6.40;;;4.32;;
77146;SDS011;66121;52.584;9.694;2024-02-26T01:19:53;8.30;;;4.13;;
77146;SDS011;66121;52.584;9.694;2024-02-26T01:22:19;6.82;;;4.20;;
77146;SDS011;66121;52.584;9.694;2024-02-26T01:24:45;8.05;;;4.22;;
77146;SDS011;66121;52.584;9.694;2024-02-26T01:27:10;5.90;;;3.80;;
77146;SDS011;66121;52.584;9.694;2024-02-26T01:29:36;7.32;;;4.25;;
77146;SDS011;66121;52.584;9.694;2024-02-26T01:32:01;6.83;;;4.10;;
77146;SDS011;66121;52.584;9.694;2024-02-26T01:34:27;7.43;;;4.13;;
77146;SDS011;66121;52.584;9.694;2024-02-26T01:36:53;8.95;;;4.55;;
77146;SDS011;66121;52.584;9.694;2024-02-26T01:39:18;7.22;;;4.32;;
77146;SDS011;66121;52.584;9.694;2024-02-26T01:41:43;6.07;;;4.07;;
77146;SDS011;66121;52.584;9.694;2024-02-26T01:44:10;5.73;;;4.33;;
77146;SDS011;66121;52.584;9.694;2024-02-26T01:46:37;5.10;;;4.22;;
77146;SDS011;66121;52.584;9.694;2024-02-26T01:49:03;5.25;;;3.65;;
77146;SDS011;66121;52.584;9.694;2024-02-26T01:51:28;7.25;;;4.20;;
77146;SDS011;66121;52.584;9.694;2024-02-26T01:53:54;6.07;;;4.30;;
77146;SDS011;66121;52.584;9.694;2024-02-26T01:56:20;5.55;;;3.90;;
77146;SDS011;66121;52.584;9.694;2024-02-26T01:58:46;7.38;;;4.45;;
77146;SDS011;66121;52.584;9.694;2024-02-26T02:01:13;8.98;;;4.40;;
77146;SDS011;66121;52.584;9.694;2024-02-26T02:03:41;8.00;;;4.38;;
77146;SDS011;66121;52.584;9.694;2024-02-26T02:06:07;7.60;;;4.90;;
77146;SDS011;66121;52.584;9.694;2024-02-26T02:08:33;7.75;;;4.28;;
77146;SDS011;66121;52.584;9.694;2024-02-26T02:11:00;7.07;;;3.95;;
77146;SDS011;66121;52.584;9.694;2024-02-26T02:13:25;6.43;;;4.55;;
77146;SDS011;66121;52.584;9.694;2024-02-26T02:15:51;8.93;;;4.55;;
77146;SDS011;66121;52.584;9.694;2024-02-26T02:18:17;9.40;;;4.95;;
77146;SDS011;66121;52.584;9.694;2024-02-26T02:20:42;7.07;;;4.28;;
77146;SDS011;66121;52.584;9.694;2024-02-26T02:23:08;7.00;;;5.25;;
77146;SDS011;66121;52.584;9.694;2024-02-26T02:25:33;8.53;;;4.47;;
77146;SDS011;66121;52.584;9.694;2024-02-26T02:27:58;6.32;;;4.20;;
77146;SDS011;66121;52.584;9.694;2024-02-26T02:30:25;7.68;;;4.30;;
77146;SDS011;66121;52.584;9.694;2024-02-26T02:32:53;8.27;;;4.22;;
77146;SDS011;66121;52.584;9.694;2024-02-26T02:35:18;6.22;;;3.80;;
77146;SDS011;66121;52.584;9.694;2024-02-26T02:37:44;6.00;;;3.97;;
77146;SDS011;66121;52.584;9.694;2024-02-26T02:40:09;8.73;;;4.65;;
77146;SDS011;66121;52.584;9.694;2024-02-26T02:42:34;8.73;;;4.63;;
77146;SDS011;66121;52.584;9.694;2024-02-26T02:45:00;7.18;;;4.45;;
77146;SDS011;66121;52.584;9.694;2024-02-26T02:47:25;5.80;;;4.03;;
77146;SDS011;66121;52.584;9.694;2024-02-26T02:49:51;5.25;;;3.97;;
77146;SDS011;66121;52.584;9.694;2024-02-26T02:52:16;5.97;;;3.80;;
77146;SDS011;66121;52.584;9.694;2024-02-26T02:54:41;6.23;;;4.30;;
77146;SDS011;66121;52.584;9.694;2024-02-26T02:57:07;7.50;;;4.20;;
77146;SDS011;66121;52.584;9.694;2024-02-26T02:59:33;7.35;;;4.22;;
77146;SDS011;66121;52.584;9.694;2024-02-26T03:01:59;6.45;;;4.10;;
77146;SDS011;66121;52.584;9.694;2024-02-26T03:04:24;6.40;;;4.27;;
77146;SDS011;66121;52.584;9.694;2024-02-26T03:06:49;7.43;;;4.72;;
77146;SDS011;66121;52.584;9.694;2024-02-26T03:09:15;7.07;;;4.00;;
77146;SDS011;66121;52.584;9.694;2024-02-26T03:11:40;6.20;;;4.50;;
77146;SDS011;66121;52.584;9.694;2024-02-26T03:14:06;5.40;;;3.78;;
77146;SDS011;66121;52.584;9.694;2024-02-26T03:16:31;7.10;;;4.53;;
77146;SDS011;66121;52.584;9.694;2024-02-26T03:18:57;7.35;;;3.85;;
77146;SDS011;66121;52.584;9.694;2024-02-26T03:21:22;7.50;;;3.85;;
77146;SDS011;66121;52.584;9.694;2024-02-26T03:23:47;6.13;;;4.05;;
77146;SDS011;66121;52.584;9.694;2024-02-26T03:26:13;7.20;;;4.10;;
77146;SDS011;66121;52.584;9.694;2024-02-26T03:28:39;7.10;;;3.15;;
77146;SDS011;66121;52.584;9.694;2024-02-26T03:31:05;8.20;;;4.28;;
77146;SDS011;66121;52.584;9.694;2024-02-26T03:33:30;6.78;;;4.13;;
77146;SDS011;66121;52.584;9.694;2024-02-26T03:35:56;7.23;;;3.93;;
77146;SDS011;66121;52.584;9.694;2024-02-26T03:38:21;7.30;;;4.20;;
77146;SDS011;66121;52.584;9.694;2024-02-26T03:40:47;9.00;;;4.13;;
77146;SDS011;66121;52.584;9.694;2024-02-26T03:43:12;7.25;;;4.40;;
77146;SDS011;66121;52.584;9.694;2024-02-26T03:45:38;6.30;;;4.28;;
77146;SDS011;66121;52.584;9.694;2024-02-26T03:48:03;6.93;;;4.40;;
77146;SDS011;66121;52.584;9.694;2024-02-26T03:50:29;7.25;;;4.15;;
77146;SDS011;66121;52.584;9.694;2024-02-26T03:52:54;6.60;;;3.60;;
77146;SDS011;66121;52.584;9.694;2024-02-26T03:55:19;6.72;;;4.05;;
77146;SDS011;66121;52.584;9.694;2024-02-26T03:57:49;6.80;;;4.15;;
77146;SDS011;66121;52.584;9.694;2024-02-26T04:00:18;7.57;;;4.07;;
77146;SDS011;66121;52.584;9.694;2024-02-26T04:02:43;6.95;;;3.97;;
77146;SDS011;66121;52.584;9.694;2024-02-26T04:05:10;6.63;;;3.85;;
77146;SDS011;66121;52.584;9.694;2024-02-26T04:07:36;5.35;;;4.03;;
77146;SDS011;66121;52.584;9.694;2024-02-26T04:10:02;5.78;;;3.90;;
77146;SDS011;66121;52.584;9.694;2024-02-26T04:12:30;7.15;;;4.13;;
77146;SDS011;66121;52.584;9.694;2024-02-26T04:14:55;8.13;;;4.18;;
77146;SDS011;66121;52.584;9.694;2024-02-26T04:17:20;6.37;;;3.87;;
77146;SDS011;66121;52.584;9.694;2024-02-26T04:19:46;6.30;;;4.37;;
77146;SDS011;66121;52.584;9.694;2024-02-26T04:22:11;7.50;;;4.07;;
77146;SDS011;66121;52.584;9.694;2024-02-26T04:24:36;6.47;;;3.92;;
77146;SDS011;66121;52.584;9.694;2024-02-26T04:27:02;5.87;;;4.00;;
77146;SDS011;66121;52.584;9.694;2024-02-26T04:29:27;8.13;;;4.70;;
77146;SDS011;66121;52.584;9.694;2024-02-26T04:31:52;6.20;;;3.90;;
77146;SDS011;66121;52.584;9.694;2024-02-26T04:34:20;6.15;;;3.80;;
77146;SDS011;66121;52.584;9.694;2024-02-26T04:36:46;6.28;;;3.70;;
77146;SDS011;66121;52.584;9.694;2024-02-26T04:39:13;6.18;;;3.75;;
77146;SDS011;66121;52.584;9.694;2024-02-26T04:41:38;8.93;;;4.65;;
77146;SDS011;66121;52.584;9.694;2024-02-26T04:44:04;4.97;;;3.33;;
77146;SDS011;66121;52.584;9.694;2024-02-26T04:46:29;6.03;;;3.60;;
77146;SDS011;66121;52.584;9.694;2024-02-26T04:48:54;6.93;;;3.30;;
77146;SDS011;66121;52.584;9.694;2024-02-26T04:51:19;6.27;;;3.53;;
77146;SDS011;66121;52.584;9.694;2024-02-26T04:53:45;5.75;;;4.00;;
77146;SDS011;66121;52.584;9.694;2024-02-26T04:56:10;8.60;;;3.43;;
77146;SDS011;66121;52.584;9.694;2024-02-26T04:58:35;4.87;;;3.47;;
77146;SDS011;66121;52.584;9.694;2024-02-26T05:01:01;6.47;;;3.80;;
77146;SDS011;66121;52.584;9.694;2024-02-26T05:03:26;5.68;;;3.83;;
77146;SDS011;66121;52.584;9.694;2024-02-26T05:05:52;5.60;;;4.22;;
77146;SDS011;66121;52.584;9.694;2024-02-26T05:08:18;6.63;;;3.78;;
77146;SDS011;66121;52.584;9.694;2024-02-26T05:10:45;4.60;;;3.53;;
77146;SDS011;66121;52.584;9.694;2024-02-26T05:13:10;7.75;;;4.07;;
77146;SDS011;66121;52.584;9.694;2024-02-26T05:15:36;6.93;;;3.97;;
77146;SDS011;66121;52.584;9.694;2024-02-26T05:18:01;9.65;;;3.97;;
77146;SDS011;66121;52.584;9.694;2024-02-26T05:20:27;8.25;;;3.90;;
77146;SDS011;66121;52.584;9.694;2024-02-26T05:22:53;6.70;;;4.03;;
77146;SDS011;66121;52.584;9.694;2024-02-26T05:25:19;6.85;;;4.47;;
77146;SDS011;66121;52.584;9.694;2024-02-26T05:27:44;6.93;;;4.20;;
77146;SDS011;66121;52.584;9.694;2024-02-26T05:30:10;7.35;;;3.78;;
77146;SDS011;66121;52.584;9.694;2024-02-26T05:32:36;6.57;;;4.40;;
77146;SDS011;66121;52.584;9.694;2024-02-26T05:35:01;6.28;;;3.95;;
77146;SDS011;66121;52.584;9.694;2024-02-26T05:37:28;6.68;;;4.10;;
77146;SDS011;66121;52.584;9.694;2024-02-26T05:39:54;7.07;;;3.90;;
77146;SDS011;66121;52.584;9.694;2024-02-26T05:42:19;6.20;;;4.03;;
77146;SDS011;66121;52.584;9.694;2024-02-26T05:44:45;8.52;;;4.50;;
77146;SDS011;66121;52.584;9.694;2024-02-26T05:47:10;6.67;;;4.10;;
77146;SDS011;66121;52.584;9.694;2024-02-26T05:49:35;8.45;;;4.63;;
77146;SDS011;66121;52.584;9.694;2024-02-26T05:52:00;7.73;;;4.33;;
77146;SDS011;66121;52.584;9.694;2024-02-26T05:54:26;7.13;;;3.80;;
77146;SDS011;66121;52.584;9.694;2024-02-26T05:56:51;5.30;;;3.73;;
77146;SDS011;66121;52.584;9.694;2024-02-26T05:59:17;4.35;;;2.97;;
77146;SDS011;66121;52.584;9.694;2024-02-26T06:01:42;6.50;;;3.90;;
77146;SDS011;66121;52.584;9.694;2024-02-26T06:04:07;8.35;;;3.60;;
77146;SDS011;66121;52.584;9.694;2024-02-26T06:06:33;6.97;;;4.13;;
77146;SDS011;66121;52.584;9.694;2024-02-26T06:08:58;7.90;;;4.13;;
77146;SDS011;66121;52.584;9.694;2024-02-26T06:11:23;8.33;;;3.80;;
77146;SDS011;66121;52.584;9.694;2024-02-26T06:13:49;7.53;;;3.20;;
77146;SDS011;66121;52.584;9.694;2024-02-26T06:16:14;7.47;;;4.13;;
77146;SDS011;66121;52.584;9.694;2024-02-26T06:18:40;6.10;;;3.55;;
77146;SDS011;66121;52.584;9.694;2024-02-26T06:21:08;9.10;;;4.13;;
77146;SDS011;66121;52.584;9.694;2024-02-26T06:23:34;5.75;;;3.90;;
77146;SDS011;66121;52.584;9.694;2024-02-26T06:25:59;5.53;;;4.05;;
77146;SDS011;66121;52.584;9.694;2024-02-26T06:28:25;7.87;;;4.10;;
77146;SDS011;66121;52.584;9.694;2024-02-26T06:30:50;6.97;;;3.90;;
77146;SDS011;66121;52.584;9.694;2024-02-26T06:33:17;6.13;;;3.47;;
77146;SDS011;66121;52.584;9.694;2024-02-26T06:35:43;6.68;;;4.10;;
77146;SDS011;66121;52.584;9.694;2024-02-26T06:38:09;5.85;;;3.63;;
77146;SDS011;66121;52.584;9.694;2024-02-26T06:40:36;5.95;;;3.72;;
77146;SDS011;66121;52.584;9.694;2024-02-26T06:43:01;6.00;;;3.15;;
77146;SDS011;66121;52.584;9.694;2024-02-26T06:45:27;5.77;;;3.17;;
77146;SDS011;66121;52.584;9.694;2024-02-26T06:47:52;5.23;;;3.13;;
77146;SDS011;66121;52.584;9.694;2024-02-26T06:50:17;5.60;;;3.05;;
77146;SDS011;66121;52.584;9.694;2024-02-26T06:52:44;5.00;;;3.42;;
77146;SDS011;66121;52.584;9.694;2024-02-26T06:55:10;5.05;;;3.83;;
77146;SDS011;66121;52.584;9.694;2024-02-26T06:57:36;10.40;;;5.63;;
77146;SDS011;66121;52.584;9.694;2024-02-26T07:00:01;11.03;;;5.87;;
77146;SDS011;66121;52.584;9.694;2024-02-26T07:02:28;9.90;;;5.47;;
77146;SDS011;66121;52.584;9.694;2024-02-26T07:04:54;6.88;;;4.78;;
77146;SDS011;66121;52.584;9.694;2024-02-26T07:07:21;7.40;;;4.50;;
77146;SDS011;66121;52.584;9.694;2024-02-26T07:09:47;8.40;;;5.45;;
77146;SDS011;66121;52.584;9.694;2024-02-26T07:12:13;8.55;;;5.30;;
77146;SDS011;66121;52.584;9.694;2024-02-26T07:14:39;7.85;;;5.43;;
77146;SDS011;66121;52.584;9.694;2024-02-26T07:17:04;9.02;;;5.47;;
77146;SDS011;66121;52.584;9.694;2024-02-26T07:19:29;9.85;;;4.97;;
77146;SDS011;66121;52.584;9.694;2024-02-26T07:21:55;8.60;;;5.17;;
77146;SDS011;66121;52.584;9.694;2024-02-26T07:24:20;11.18;;;5.57;;
77146;SDS011;66121;52.584;9.694;2024-02-26T07:26:46;10.75;;;5.03;;
77146;SDS011;66121;52.584;9.694;2024-02-26T07:29:11;6.57;;;4.75;;
77146;SDS011;66121;52.584;9.694;2024-02-26T07:31:37;7.50;;;5.05;;
77146;SDS011;66121;52.584;9.694;2024-02-26T07:34:02;9.67;;;5.13;;
77146;SDS011;66121;52.584;9.694;2024-02-26T07:36:27;9.85;;;4.43;;
77146;SDS011;66121;52.584;9.694;2024-02-26T07:38:53;7.27;;;4.77;;
77146;SDS011;66121;52.584;9.694;2024-02-26T07:41:19;6.05;;;4.07;;
77146;SDS011;66121;52.584;9.694;2024-02-26T07:43:45;6.35;;;4.30;;
77146;SDS011;66121;52.584;9.694;2024-02-26T07:46:13;6.77;;;4.10;;
77146;SDS011;66121;52.584;9.694;2024-02-26T07:48:39;7.05;;;4.38;;
77146;SDS011;66121;52.584;9.694;2024-02-26T07:51:04;7.75;;;4.43;;
77146;SDS011;66121;52.584;9.694;2024-02-26T07:53:30;6.82;;;4.22;;
77146;SDS011;66121;52.584;9.694;2024-02-26T07:55:55;5.68;;;4.25;;
77146;SDS011;66121;52.584;9.694;2024-02-26T07:58:21;8.50;;;3.78;;
77146;SDS011;66121;52.584;9.694;2024-02-26T08:00:48;6.20;;;3.88;;
77146;SDS011;66121;52.584;9.694;2024-02-26T08:03:14;5.80;;;3.85;;
77146;SDS011;66121;52.584;9.694;2024-02-26T08:05:40;6.88;;;4.28;;
77146;SDS011;66121;52.584;9.694;2024-02-26T08:08:07;7.20;;;4.80;;
77146;SDS011;66121;52.584;9.694;2024-02-26T08:10:33;6.90;;;4.10;;
77146;SDS011;66121;52.584;9.694;2024-02-26T08:12:58;7.30;;;4.82;;
77146;SDS011;66121;52.584;9.694;2024-02-26T08:15:30;6.90;;;4.30;;
77146;SDS011;66121;52.584;9.694;2024-02-26T08:17:56;7.22;;;4.72;;
77146;SDS011;66121;52.584;9.694;2024-02-26T08:20:21;6.67;;;3.90;;
77146;SDS011;66121;52.584;9.694;2024-02-26T08:22:47;5.67;;;3.53;;
77146;SDS011;66121;52.584;9.694;2024-02-26T08:25:12;6.47;;;3.80;;
77146;SDS011;66121;52.584;9.694;2024-02-26T08:27:37;4.43;;;3.63;;
77146;SDS011;66121;52.584;9.694;2024-02-26T08:30:03;4.05;;;3.03;;
77146;SDS011;66121;52.584;9.694;2024-02-26T08:32:29;6.07;;;3.33;;
77146;SDS011;66121;52.584;9.694;2024-02-26T08:34:54;5.50;;;3.55;;
77146;SDS011;66121;52.584;9.694;2024-02-26T08:37:20;5.97;;;3.88;;
77146;SDS011;66121;52.584;9.694;2024-02-26T08:39:45;5.18;;;2.97;;
77146;SDS011;66121;52.584;9.694;2024-02-26T08:42:11;5.65;;;3.67;;
77146;SDS011;66121;52.584;9.694;2024-02-26T08:44:36;7.15;;;3.70;;
77146;SDS011;66121;52.584;9.694;2024-02-26T08:47:01;6.43;;;3.72;;
77146;SDS011;66121;52.584;9.694;2024-02-26T08:49:27;5.93;;;3.42;;
77146;SDS011;66121;52.584;9.694;2024-02-26T08:51:52;7.20;;;3.38;;
77146;SDS011;66121;52.584;9.694;2024-02-26T08:54:18;5.40;;;3.85;;
77146;SDS011;66121;52.584;9.694;2024-02-26T08:56:43;5.85;;;3.80;;
77146;SDS011;66121;52.584;9.694;2024-02-26T08:59:09;5.97;;;3.73;;
77146;SDS011;66121;52.584;9.694;2024-02-26T09:01:34;5.20;;;3.77;;
77146;SDS011;66121;52.584;9.694;2024-02-26T09:03:59;7.43;;;4.40;;
77146;SDS011;66121;52.584;9.694;2024-02-26T09:06:24;5.47;;;3.63;;
77146;SDS011;66121;52.584;9.694;2024-02-26T09:08:50;5.30;;;3.42;;
77146;SDS011;66121;52.584;9.694;2024-02-26T09:11:15;6.93;;;3.90;;
77146;SDS011;66121;52.584;9.694;2024-02-26T09:13:41;9.90;;;3.17;;
77146;SDS011;66121;52.584;9.694;2024-02-26T09:16:07;4.28;;;3.00;;
77146;SDS011;66121;52.584;9.694;2024-02-26T09:18:32;7.07;;;3.40;;
77146;SDS011;66121;52.584;9.694;2024-02-26T09:20:57;6.10;;;3.55;;
77146;SDS011;66121;52.584;9.694;2024-02-26T09:23:23;5.65;;;3.58;;
77146;SDS011;66121;52.584;9.694;2024-02-26T09:25:48;4.53;;;2.50;;
77146;SDS011;66121;52.584;9.694;2024-02-26T09:28:13;4.78;;;3.13;;
77146;SDS011;66121;52.584;9.694;2024-02-26T09:30:42;5.53;;;3.35;;
77146;SDS011;66121;52.584;9.694;2024-02-26T09:33:07;5.18;;;3.42;;
77146;SDS011;66121;52.584;9.694;2024-02-26T09:35:33;5.80;;;3.63;;
77146;SDS011;66121;52.584;9.694;2024-02-26T09:37:59;5.47;;;2.97;;
77146;SDS011;66121;52.584;9.694;2024-02-26T09:40:24;4.57;;;3.03;;
77146;SDS011;66121;52.584;9.694;2024-02-26T09:42:50;5.70;;;3.40;;
77146;SDS011;66121;52.584;9.694;2024-02-26T09:45:21;5.55;;;2.58;;
77146;SDS011;66121;52.584;9.694;2024-02-26T09:47:49;5.43;;;3.30;;
77146;SDS011;66121;52.584;9.694;2024-02-26T09:50:16;4.90;;;3.20;;
77146;SDS011;66121;52.584;9.694;2024-02-26T09:52:43;4.70;;;3.17;;
77146;SDS011;66121;52.584;9.694;2024-02-26T09:55:09;4.47;;;3.03;;
77146;SDS011;66121;52.584;9.694;2024-02-26T09:57:35;5.15;;;3.15;;
77146;SDS011;66121;52.584;9.694;2024-02-26T10:00:03;6.50;;;3.55;;
77146;SDS011;66121;52.584;9.694;2024-02-26T10:02:33;4.90;;;2.83;;
77146;SDS011;66121;52.584;9.694;2024-02-26T10:05:01;6.97;;;2.80;;
77146;SDS011;66121;52.584;9.694;2024-02-26T10:07:30;5.38;;;2.90;;
77146;SDS011;66121;52.584;9.694;2024-02-26T10:09:55;5.18;;;3.05;;
77146;SDS011;66121;52.584;9.694;2024-02-26T10:12:21;3.85;;;2.90;;
77146;SDS011;66121;52.584;9.694;2024-02-26T10:14:46;4.95;;;3.03;;
77146;SDS011;66121;52.584;9.694;2024-02-26T10:17:12;4.78;;;2.65;;
77146;SDS011;66121;52.584;9.694;2024-02-26T10:19:37;5.15;;;2.83;;
77146;SDS011;66121;52.584;9.694;2024-02-26T10:22:03;5.45;;;2.35;;
77146;SDS011;66121;52.584;9.694;2024-02-26T10:24:29;4.55;;;2.65;;
77146;SDS011;66121;52.584;9.694;2024-02-26T10:26:55;4.65;;;2.97;;
77146;SDS011;66121;52.584;9.694;2024-02-26T10:29:21;3.83;;;2.20;;
77146;SDS011;66121;52.584;9.694;2024-02-26T10:31:48;4.07;;;2.50;;
77146;SDS011;66121;52.584;9.694;2024-02-26T10:34:15;4.75;;;3.10;;
77146;SDS011;66121;52.584;9.694;2024-02-26T10:36:41;4.40;;;2.55;;
77146;SDS011;66121;52.584;9.694;2024-02-26T10:39:07;3.70;;;2.42;;
77146;SDS011;66121;52.584;9.694;2024-02-26T10:41:33;4.80;;;2.80;;
77146;SDS011;66121;52.584;9.694;2024-02-26T10:43:59;4.45;;;2.60;;
77146;SDS011;66121;52.584;9.694;2024-02-26T10:46:25;6.50;;;2.85;;
77146;SDS011;66121;52.584;9.694;2024-02-26T10:48:51;3.42;;;1.77;;
77146;SDS011;66121;52.584;9.694;2024-02-26T10:51:20;6.25;;;2.40;;
77146;SDS011;66121;52.584;9.694;2024-02-26T10:53:50;4.47;;;2.42;;
77146;SDS011;66121;52.584;9.694;2024-02-26T10:56:21;4.15;;;2.45;;
77146;SDS011;66121;52.584;9.694;2024-02-26T10:58:52;4.00;;;2.50;;
77146;SDS011;66121;52.584;9.694;2024-02-26T11:01:17;7.10;;;2.80;;
77146;SDS011;66121;52.584;9.694;2024-02-26T11:03:44;4.35;;;2.45;;
77146;SDS011;66121;52.584;9.694;2024-02-26T11:06:10;4.10;;;2.63;;
77146;SDS011;66121;52.584;9.694;2024-02-26T11:08:37;5.18;;;2.70;;
77146;SDS011;66121;52.584;9.694;2024-02-26T11:11:03;4.78;;;2.55;;
77146;SDS011;66121;52.584;9.694;2024-02-26T11:13:30;4.03;;;2.47;;
77146;SDS011;66121;52.584;9.694;2024-02-26T11:15:56;4.18;;;2.55;;
77146;SDS011;66121;52.584;9.694;2024-02-26T11:18:25;4.28;;;1.98;;
77146;SDS011;66121;52.584;9.694;2024-02-26T11:20:52;4.40;;;2.30;;
77146;SDS011;66121;52.584;9.694;2024-02-26T11:23:22;3.25;;;2.40;;
77146;SDS011;66121;52.584;9.694;2024-02-26T11:25:47;3.85;;;2.40;;
77146;SDS011;66121;52.584;9.694;2024-02-26T11:28:16;2.15;;;1.60;;
77146;SDS011;66121;52.584;9.694;2024-02-26T11:30:45;3.42;;;2.38;;
77146;SDS011;66121;52.584;9.694;2024-02-26T11:33:13;3.78;;;2.10;;
77146;SDS011;66121;52.584;9.694;2024-02-26T11:35:39;2.83;;;2.05;;
77146;SDS011;66121;52.584;9.694;2024-02-26T11:38:05;3.90;;;2.13;;
77146;SDS011;66121;52.584;9.694;2024-02-26T11:40:32;3.67;;;2.08;;
77146;SDS011;66121;52.584;9.694;2024-02-26T11:42:58;4.70;;;2.00;;
77146;SDS011;66121;52.584;9.694;2024-02-26T11:48:13;3.80;;;2.13;;
77146;SDS011;66121;52.584;9.694;2024-02-26T11:50:48;3.80;;;1.90;;
77146;SDS011;66121;52.584;9.694;2024-02-26T11:53:22;3.30;;;1.88;;
77146;SDS011;66121;52.584;9.694;2024-02-26T11:56:40;3.17;;;1.67;;
77146;SDS011;66121;52.584;9.694;2024-02-26T11:58:43;2.60;;;1.65;;
77146;SDS011;66121;52.584;9.694;2024-02-26T12:04:06;3.63;;;1.90;;
77146;SDS011;66121;52.584;9.694;2024-02-26T12:09:13;3.72;;;1.60;;
77146;SDS011;66121;52.584;9.694;2024-02-26T12:11:39;3.03;;;1.60;;
77146;SDS011;66121;52.584;9.694;2024-02-26T12:14:05;2.95;;;1.73;;
77146;SDS011;66121;52.584;9.694;2024-02-26T12:16:36;2.05;;;1.60;;
77146;SDS011;66121;52.584;9.694;2024-02-26T12:19:04;2.28;;;1.40;;
77146;SDS011;66121;52.584;9.694;2024-02-26T12:21:31;4.28;;;1.33;;
77146;SDS011;66121;52.584;9.694;2024-02-26T12:24:06;1.42;;;1.33;;
77146;SDS011;66121;52.584;9.694;2024-02-26T12:26:34;3.67;;;1.60;;
77146;SDS011;66121;52.584;9.694;2024-02-26T12:29:00;2.53;;;1.53;;
77146;SDS011;66121;52.584;9.694;2024-02-26T12:31:26;3.00;;;1.20;;
77146;SDS011;66121;52.584;9.694;2024-02-26T12:33:53;2.88;;;1.75;;
77146;SDS011;66121;52.584;9.694;2024-02-26T12:36:20;3.22;;;1.40;;
77146;SDS011;66121;52.584;9.694;2024-02-26T12:38:45;1.55;;;1.10;;
77146;SDS011;66121;52.584;9.694;2024-02-26T12:41:11;2.45;;;1.73;;
77146;SDS011;66121;52.584;9.694;2024-02-26T12:43:36;2.60;;;1.63;;
77146;SDS011;66121;52.584;9.694;2024-02-26T12:46:03;2.40;;;1.40;;
77146;SDS011;66121;52.584;9.694;2024-02-26T12:48:29;1.60;;;1.23;;
77146;SDS011;66121;52.584;9.694;2024-02-26T12:50:54;2.53;;;1.70;;
77146;SDS011;66121;52.584;9.694;2024-02-26T12:53:21;2.15;;;1.40;;
77146;SDS011;66121;52.584;9.694;2024-02-26T12:55:47;2.08;;;1.27;;
77146;SDS011;66121;52.584;9.694;2024-02-26T12:58:12;1.85;;;1.40;;
77146;SDS011;66121;52.584;9.694;2024-02-26T13:00:39;1.85;;;1.20;;
77146;SDS011;66121;52.584;9.694;2024-02-26T13:03:05;3.30;;;1.90;;
77146;SDS011;66121;52.584;9.694;2024-02-26T13:05:31;2.08;;;1.48;;
77146;SDS011;66121;52.584;9.694;2024-02-26T13:07:58;2.17;;;1.33;;
77146;SDS011;66121;52.584;9.694;2024-02-26T13:10:23;2.55;;;1.58;;
77146;SDS011;66121;52.584;9.694;2024-02-26T13:12:50;3.17;;;1.60;;
77146;SDS011;66121;52.584;9.694;2024-02-26T13:15:16;2.85;;;1.27;;
77146;SDS011;66121;52.584;9.694;2024-02-26T13:17:43;2.13;;;1.33;;
77146;SDS011;66121;52.584;9.694;2024-02-26T13:20:09;3.10;;;1.60;;
77146;SDS011;66121;52.584;9.694;2024-02-26T13:22:37;1.92;;;1.35;;
77146;SDS011;66121;52.584;9.694;2024-02-26T13:25:03;1.48;;;1.10;;
77146;SDS011;66121;52.584;9.694;2024-02-26T13:27:29;2.90;;;1.63;;
77146;SDS011;66121;52.584;9.694;2024-02-26T13:30:10;4.10;;;1.45;;
77146;SDS011;66121;52.584;9.694;2024-02-26T13:32:37;3.17;;;1.50;;
77146;SDS011;66121;52.584;9.694;2024-02-26T13:35:11;3.35;;;1.60;;
77146;SDS011;66121;52.584;9.694;2024-02-26T13:37:37;5.28;;;1.65;;
77146;SDS011;66121;52.584;9.694;2024-02-26T13:40:07;1.98;;;1.30;;
77146;SDS011;66121;52.584;9.694;2024-02-26T13:42:33;2.70;;;1.40;;
77146;SDS011;66121;52.584;9.694;2024-02-26T13:44:59;2.03;;;1.35;;
77146;SDS011;66121;52.584;9.694;2024-02-26T13:47:24;1.77;;;1.27;;
77146;SDS011;66121;52.584;9.694;2024-02-26T13:49:50;2.58;;;1.50;;
77146;SDS011;66121;52.584;9.694;2024-02-26T13:52:15;2.58;;;1.40;;
77146;SDS011;66121;52.584;9.694;2024-02-26T13:54:41;1.60;;;1.10;;
77146;SDS011;66121;52.584;9.694;2024-02-26T13:57:06;1.83;;;1.40;;
77146;SDS011;66121;52.584;9.694;2024-02-26T13:59:32;1.67;;;1.42;;
77146;SDS011;66121;52.584;9.694;2024-02-26T14:01:57;1.67;;;1.30;;
77146;SDS011;66121;52.584;9.694;2024-02-26T14:04:22;2.33;;;1.40;;
77146;SDS011;66121;52.584;9.694;2024-02-26T14:06:48;2.50;;;1.20;;
77146;SDS011;66121;52.584;9.694;2024-02-26T14:09:13;1.48;;;1.13;;
77146;SDS011;66121;52.584;9.694;2024-02-26T14:11:46;2.30;;;1.40;;
77146;SDS011;66121;52.584;9.694;2024-02-26T14:14:12;1.52;;;1.20;;
77146;SDS011;66121;52.584;9.694;2024-02-26T14:16:37;1.88;;;1.35;;
77146;SDS011;66121;52.584;9.694;2024-02-26T14:19:02;1.52;;;1.20;;
77146;SDS011;66121;52.584;9.694;2024-02-26T14:21:28;2.28;;;1.45;;
77146;SDS011;66121;52.584;9.694;2024-02-26T14:23:54;1.80;;;1.30;;
77146;SDS011;66121;52.584;9.694;2024-02-26T14:26:20;2.13;;;1.40;;
77146;SDS011;66121;52.584;9.694;2024-02-26T14:28:46;1.77;;;1.38;;
77146;SDS011;66121;52.584;9.694;2024-02-26T14:31:12;1.88;;;1.50;;
77146;SDS011;66121;52.584;9.694;2024-02-26T14:33:38;2.42;;;1.27;;
77146;SDS011;66121;52.584;9.694;2024-02-26T14:36:05;4.07;;;1.70;;
77146;SDS011;66121;52.584;9.694;2024-02-26T14:38:31;2.13;;;1.55;;
77146;SDS011;66121;52.584;9.694;2024-02-26T14:40:57;3.40;;;1.50;;
77146;SDS011;66121;52.584;9.694;2024-02-26T14:43:22;3.13;;;1.50;;
77146;SDS011;66121;52.584;9.694;2024-02-26T14:45:47;2.63;;;1.73;;
77146;SDS011;66121;52.584;9.694;2024-02-26T14:48:13;3.00;;;1.80;;
77146;SDS011;66121;52.584;9.694;2024-02-26T14:50:38;2.65;;;1.70;;